Time;durP1;ratioP1;P1;durP2;ratioP2;P2;SDS_P1;SDS_P2;PMS_P1;PMS_P2;Temp;Humidity;BMP_temperature;BMP_pressure;BME280_temperature;BME280_humidity;BME280_pressure;Samples;Min_cycle;Max_cycle;Signal;HPM_P1;HPM_P2
2021/06/10 00:02:13;;;;;;;31.87;28.77;;;16.80;84.10;;;;;;5054141;28;20053;-71
2021/06/10 00:04:39;;;;;;;32.93;29.53;;;16.70;84.30;;;;;;5053725;28;20044;-71
2021/06/10 00:07:05;;;;;;;35.90;32.30;;;16.70;84.50;;;;;;5053924;28;20122;-71
2021/06/10 00:09:31;;;;;;;31.70;28.53;;;16.60;84.50;;;;;;5054552;28;20052;-71
2021/06/10 00:11:57;;;;;;;34.20;30.97;;;16.60;84.70;;;;;;5053761;28;20124;-71
2021/06/10 00:14:23;;;;;;;31.57;28.57;;;16.60;84.70;;;;;;5054102;28;20124;-71
2021/06/10 00:16:49;;;;;;;32.77;29.43;;;16.60;84.90;;;;;;5054045;28;20080;-71
2021/06/10 00:19:14;;;;;;;35.07;31.67;;;16.50;84.90;;;;;;5052950;28;20052;-70
2021/06/10 00:21:41;;;;;;;35.87;32.23;;;16.50;85.00;;;;;;5053897;28;20059;-71
2021/06/10 00:24:07;;;;;;;35.60;32.03;;;16.40;85.20;;;;;;5053092;28;20044;-71
2021/06/10 00:26:34;;;;;;;36.70;32.80;;;16.40;85.30;;;;;;5053866;28;20049;-71
2021/06/10 00:29:00;;;;;;;37.23;33.43;;;16.30;85.50;;;;;;5052757;28;20045;-71
2021/06/10 00:31:26;;;;;;;36.87;33.20;;;16.30;85.70;;;;;;5051931;28;20167;-71
2021/06/10 00:33:52;;;;;;;39.90;35.90;;;16.30;85.80;;;;;;5052298;28;20114;-71
2021/06/10 00:36:18;;;;;;;34.27;30.93;;;16.20;86.00;;;;;;5052352;28;20288;-71
2021/06/10 00:38:46;;;;;;;37.67;33.83;;;16.20;86.00;;;;;;5051328;28;20077;-71
2021/06/10 00:41:12;;;;;;;39.53;35.37;;;16.20;86.00;;;;;;5052103;28;20403;-71
2021/06/10 00:43:38;;;;;;;38.30;34.60;;;16.20;86.20;;;;;;5052450;28;20075;-71
2021/06/10 00:46:04;;;;;;;39.40;35.23;;;16.10;86.30;;;;;;5051368;28;20057;-70
2021/06/10 00:48:30;;;;;;;38.50;34.57;;;16.10;86.40;;;;;;5052245;28;20532;-71
2021/06/10 00:50:56;;;;;;;40.57;36.40;;;16.10;86.60;;;;;;5052497;28;20041;-71
2021/06/10 00:53:22;;;;;;;39.60;35.60;;;16.10;86.70;;;;;;5051311;28;20059;-71
2021/06/10 00:55:59;;;;;;;42.03;37.67;;;16.10;86.90;;;;;;5052466;28;20072;-71
2021/06/10 00:58:26;;;;;;;40.30;36.20;;;16.10;86.90;;;;;;5052328;28;20049;-71
2021/06/10 01:00:53;;;;;;;38.47;34.57;;;16.00;87.00;;;;;;5051501;28;20148;-70
2021/06/10 01:03:19;;;;;;;40.27;36.07;;;16.00;87.10;;;;;;5052081;28;20053;-71
2021/06/10 01:05:56;;;;;;;41.30;37.10;;;16.00;87.20;;;;;;5052199;28;20212;-71
2021/06/10 01:08:26;;;;;;;44.67;39.93;;;16.00;87.40;;;;;;5051259;28;20147;-71
2021/06/10 01:10:59;;;;;;;41.83;37.50;;;15.90;87.60;;;;;;5052066;28;20129;-70
2021/06/10 01:13:51;;;;;;;41.53;37.40;;;15.90;87.70;;;;;;5051181;28;20095;-71
2021/06/10 01:16:21;;;;;;;38.50;34.53;;;15.90;87.90;;;;;;5051648;28;20405;-70
2021/06/10 01:18:48;;;;;;;45.27;40.73;;;15.80;87.80;;;;;;5052485;28;20067;-70
2021/06/10 01:21:18;;;;;;;43.27;38.83;;;15.80;87.90;;;;;;5050859;28;20482;-71
2021/06/10 01:24:13;;;;;;;41.80;37.37;;;15.80;88.10;;;;;;5051878;28;20055;-70
2021/06/10 01:27:05;;;;;;;44.43;39.67;;;15.80;88.30;;;;;;5052026;28;20121;-70
2021/06/10 01:29:32;;;;;;;45.33;40.53;;;15.70;88.30;;;;;;5049502;28;55904;-71
2021/06/10 01:31:59;;;;;;;43.23;37.90;;;15.70;88.40;;;;;;5052606;28;20107;-71
2021/06/10 01:34:25;;;;;;;42.47;38.30;;;15.70;88.60;;;;;;5052382;28;20080;-71
2021/06/10 01:36:54;;;;;;;47.57;42.57;;;15.60;88.90;;;;;;5052695;28;20045;-70
2021/06/10 01:39:24;;;;;;;46.57;41.77;;;15.60;89.00;;;;;;5052516;28;20052;-70
2021/06/10 01:41:49;;;;;;;49.07;42.30;;;15.60;89.30;;;;;;5051902;28;20079;-71
2021/06/10 01:44:16;;;;;;;52.60;43.70;;;15.50;89.30;;;;;;5052048;28;20048;-70
2021/06/10 01:46:42;;;;;;;48.13;42.93;;;15.50;89.50;;;;;;5052700;28;20073;-71
2021/06/10 01:49:11;;;;;;;43.10;36.93;;;15.50;89.50;;;;;;5051487;28;20120;-70
2021/06/10 01:51:37;;;;;;;45.03;40.23;;;15.50;89.70;;;;;;5051594;28;20516;-71
2021/06/10 01:54:06;;;;;;;45.10;40.30;;;15.50;89.80;;;;;;5052006;28;20049;-71
2021/06/10 01:56:33;;;;;;;45.70;40.87;;;15.40;89.90;;;;;;5051642;28;20442;-71
2021/06/10 01:59:00;;;;;;;48.07;42.83;;;15.40;89.90;;;;;;5051897;28;20174;-71
2021/06/10 02:01:29;;;;;;;49.43;43.63;;;15.30;90.00;;;;;;5052102;28;20044;-71
2021/06/10 02:03:57;;;;;;;49.47;43.97;;;15.30;90.10;;;;;;5051678;28;20083;-71
2021/06/10 02:06:25;;;;;;;46.50;41.47;;;15.20;90.30;;;;;;5052218;28;20041;-71
2021/06/10 02:08:51;;;;;;;40.87;36.60;;;15.20;90.30;;;;;;5052421;28;20049;-71
2021/06/10 02:11:18;;;;;;;48.77;42.93;;;15.20;90.40;;;;;;5050967;28;20045;-71
2021/06/10 02:13:47;;;;;;;49.27;44.07;;;15.10;90.40;;;;;;5051918;28;20097;-71
2021/06/10 02:16:14;;;;;;;51.33;45.83;;;15.10;90.60;;;;;;5051539;28;20128;-71
2021/06/10 02:18:41;;;;;;;49.40;44.10;;;15.00;90.60;;;;;;5050880;28;20557;-71
2021/06/10 02:21:10;;;;;;;51.27;45.77;;;15.10;90.70;;;;;;5051493;28;20068;-71
2021/06/10 02:23:37;;;;;;;49.10;44.13;;;15.10;90.70;;;;;;5051784;28;20051;-71
2021/06/10 02:26:04;;;;;;;52.97;45.47;;;15.00;90.70;;;;;;5050914;28;20045;-71
2021/06/10 02:28:31;;;;;;;49.63;44.33;;;15.00;90.60;;;;;;5051136;28;20114;-71
2021/06/10 02:30:58;;;;;;;52.37;46.67;;;15.00;90.70;;;;;;5051023;28;20138;-71
2021/06/10 02:33:24;;;;;;;51.10;45.63;;;15.00;90.70;;;;;;5051445;28;20120;-72
2021/06/10 02:35:51;;;;;;;49.23;44.00;;;14.90;90.70;;;;;;5051477;28;20136;-71
2021/06/10 02:38:20;;;;;;;49.20;43.73;;;14.90;90.70;;;;;;5050520;28;20060;-71
2021/06/10 02:40:51;;;;;;;48.43;43.20;;;14.90;90.70;;;;;;5051583;28;20461;-71
2021/06/10 02:43:18;;;;;;;49.30;44.03;;;14.90;90.70;;;;;;5050833;28;20049;-71
2021/06/10 02:45:45;;;;;;;45.17;40.27;;;14.80;90.70;;;;;;5050521;28;20512;-71
2021/06/10 02:48:12;;;;;;;46.57;41.70;;;14.80;90.80;;;;;;5051036;28;20056;-71
2021/06/10 02:50:40;;;;;;;42.77;38.33;;;14.70;90.80;;;;;;5051100;28;20413;-71
2021/06/10 02:53:15;;;;;;;43.57;37.53;;;14.70;90.90;;;;;;5050309;28;20465;-71
2021/06/10 02:55:43;;;;;;;48.43;41.37;;;14.60;90.80;;;;;;5051077;28;20049;-71
2021/06/10 02:58:12;;;;;;;45.03;40.43;;;14.60;90.80;;;;;;5050667;28;20057;-71
2021/06/10 03:00:39;;;;;;;43.27;38.77;;;14.60;90.70;;;;;;5050414;28;20051;-71
2021/06/10 03:03:09;;;;;;;43.40;38.50;;;14.60;90.70;;;;;;5050585;28;20486;-71
2021/06/10 03:05:37;;;;;;;38.67;34.73;;;14.60;90.70;;;;;;5051293;28;20120;-71
2021/06/10 03:08:03;;;;;;;42.77;38.17;;;14.60;90.70;;;;;;5050059;28;20076;-71
2021/06/10 03:10:34;;;;;;;34.73;31.10;;;14.50;90.60;;;;;;5051290;28;20406;-71
2021/06/10 03:13:01;;;;;;;34.58;30.98;;;14.50;90.60;;;;;;5049826;28;20045;-71
2021/06/10 03:15:28;;;;;;;37.37;33.17;;;14.50;90.60;;;;;;5050993;28;20099;-71
2021/06/10 03:17:54;;;;;;;43.43;38.67;;;14.50;90.60;;;;;;5051128;28;20084;-71
2021/06/10 03:20:21;;;;;;;40.70;36.50;;;14.40;90.60;;;;;;5049918;28;20174;-71
2021/06/10 03:22:47;;;;;;;45.90;40.93;;;14.40;90.60;;;;;;5051008;28;20049;-71
2021/06/10 03:25:13;;;;;;;44.90;40.20;;;14.40;90.60;;;;;;5050811;28;20448;-71
2021/06/10 03:27:40;;;;;;;39.00;34.80;;;14.40;90.70;;;;;;5050079;28;20051;-71
2021/06/10 03:30:08;;;;;;;44.67;39.57;;;14.40;90.80;;;;;;5050509;28;20083;-71
2021/06/10 03:32:35;;;;;;;46.10;40.37;;;14.40;90.80;;;;;;5050755;28;20076;-71
2021/06/10 03:35:02;;;;;;;38.93;34.37;;;14.30;90.70;;;;;;5049555;28;20588;-71
2021/06/10 03:37:29;;;;;;;40.20;35.87;;;14.30;90.70;;;;;;5050898;28;20142;-71
2021/06/10 03:39:56;;;;;;;45.90;40.37;;;14.30;90.70;;;;;;5050721;28;20398;-71
2021/06/10 03:42:23;;;;;;;48.73;41.90;;;14.30;90.70;;;;;;5049875;28;20103;-71
2021/06/10 03:44:49;;;;;;;44.53;37.13;;;14.20;90.70;;;;;;5050683;28;20398;-71
2021/06/10 03:47:17;;;;;;;46.40;40.53;;;14.20;90.80;;;;;;5050696;28;20045;-71
2021/06/10 03:49:43;;;;;;;46.20;40.23;;;14.20;90.80;;;;;;5050099;28;20055;-71
2021/06/10 03:52:10;;;;;;;47.77;42.60;;;14.20;90.90;;;;;;5050485;28;20067;-71
2021/06/10 03:54:36;;;;;;;46.50;41.10;;;14.10;91.00;;;;;;5050752;28;20049;-71
2021/06/10 03:57:03;;;;;;;46.87;41.83;;;14.10;91.10;;;;;;5049716;28;20076;-71
2021/06/10 03:59:28;;;;;;;45.37;40.40;;;14.10;91.10;;;;;;5050587;28;20052;-71
2021/06/10 04:01:54;;;;;;;45.07;40.13;;;14.10;91.20;;;;;;5050350;28;20090;-71
2021/06/10 04:04:20;;;;;;;47.40;40.97;;;14.00;91.10;;;;;;5049729;28;20072;-71
2021/06/10 04:06:47;;;;;;;45.73;40.63;;;14.00;91.20;;;;;;5050504;28;20406;-70
2021/06/10 04:09:16;;;;;;;47.70;40.47;;;14.00;91.30;;;;;;5049490;28;20049;-71
2021/06/10 04:11:42;;;;;;;43.47;36.33;;;14.00;91.30;;;;;;5050473;28;20410;-70
2021/06/10 04:14:08;;;;;;;48.80;43.47;;;14.00;91.40;;;;;;5050233;28;20390;-70
2021/06/10 04:16:34;;;;;;;41.77;36.47;;;14.00;91.50;;;;;;5053297;28;20075;-71
2021/06/10 04:18:59;;;;;;;44.10;39.17;;;14.00;91.50;;;;;;5053959;28;20136;-70
2021/06/10 04:21:43;;;;;;;48.03;40.50;;;14.00;91.40;;;;;;5054247;28;20064;-71
2021/06/10 04:24:10;;;;;;;46.10;40.20;;;14.00;91.50;;;;;;5053316;28;20466;-70
2021/06/10 04:26:36;;;;;;;46.13;39.00;;;14.00;91.50;;;;;;5054061;28;20049;-70
2021/06/10 04:29:02;;;;;;;44.73;39.57;;;14.10;91.50;;;;;;5053347;28;20059;-71
2021/06/10 04:31:28;;;;;;;44.30;39.60;;;14.10;91.50;;;;;;5053221;28;20049;-71
2021/06/10 04:33:54;;;;;;;43.37;37.70;;;14.10;91.60;;;;;;5053951;28;20045;-71
2021/06/10 04:36:20;;;;;;;43.43;38.70;;;14.30;91.40;;;;;;5053777;28;20044;-71
2021/06/10 04:38:45;;;;;;;43.33;37.83;;;14.40;91.30;;;;;;5053105;28;20119;-71
2021/06/10 04:41:12;;;;;;;43.00;38.37;;;14.40;91.30;;;;;;5053276;28;20466;-71
2021/06/10 04:43:57;;;;;;;46.17;40.97;;;14.50;91.40;;;;;;5038208;28;20097;-71
2021/06/10 04:46:24;;;;;;;44.17;38.83;;;14.50;91.40;;;;;;5052782;28;20059;-70
2021/06/10 04:48:50;;;;;;;49.87;43.10;;;14.60;91.30;;;;;;5053471;28;20045;-71
2021/06/10 04:51:16;;;;;;;48.60;43.00;;;14.60;91.30;;;;;;5053191;28;20044;-71
2021/06/10 04:53:44;;;;;;;48.03;42.87;;;14.60;91.40;;;;;;5052780;28;20057;-71
2021/06/10 04:56:10;;;;;;;46.67;41.57;;;14.60;91.50;;;;;;5052703;28;20055;-71
2021/06/10 04:58:37;;;;;;;49.93;43.90;;;14.60;91.60;;;;;;5052703;28;20386;-71
2021/06/10 05:01:04;;;;;;;47.27;40.53;;;14.60;91.60;;;;;;5053167;28;20049;-71
2021/06/10 05:03:33;;;;;;;44.90;39.60;;;14.70;91.70;;;;;;5053176;28;20457;-71
2021/06/10 05:06:01;;;;;;;46.13;41.17;;;14.70;91.70;;;;;;5052166;28;20049;-71
2021/06/10 05:08:32;;;;;;;44.33;39.57;;;14.70;91.80;;;;;;5053296;28;20044;-71
2021/06/10 05:11:00;;;;;;;43.30;38.77;;;14.80;91.80;;;;;;5052853;28;20053;-71
2021/06/10 05:13:26;;;;;;;47.93;42.87;;;14.80;92.00;;;;;;5052352;28;20052;-71
2021/06/10 05:15:53;;;;;;;48.20;42.23;;;15.00;92.00;;;;;;5053201;28;20075;-71
2021/06/10 05:18:19;;;;;;;45.43;40.73;;;15.20;91.90;;;;;;5052811;28;20489;-71
2021/06/10 05:20:46;;;;;;;46.83;40.93;;;15.40;91.70;;;;;;5052271;28;20049;-71
2021/06/10 05:23:12;;;;;;;43.47;38.77;;;15.60;91.30;;;;;;5052534;28;20114;-71
2021/06/10 05:25:37;;;;;;;45.23;39.90;;;15.60;91.30;;;;;;5051811;28;20402;-71
2021/06/10 05:28:03;;;;;;;44.33;39.73;;;15.60;91.30;;;;;;5051490;28;20053;-71
2021/06/10 05:30:29;;;;;;;38.90;34.70;;;15.70;91.40;;;;;;5052314;28;20065;-71
2021/06/10 05:32:55;;;;;;;41.83;37.43;;;15.70;91.30;;;;;;5052543;28;20448;-71
2021/06/10 05:35:25;;;;;;;41.57;37.10;;;15.80;91.30;;;;;;5051931;28;20049;-71
2021/06/10 05:37:51;;;;;;;43.13;38.73;;;15.90;91.30;;;;;;5052510;28;20087;-71
2021/06/10 05:40:37;;;;;;;41.50;37.10;;;15.90;91.30;;;;;;5037239;28;20435;-71
2021/06/10 05:43:03;;;;;;;42.53;38.13;;;16.10;91.20;;;;;;5051798;28;20076;-71
2021/06/10 05:45:29;;;;;;;38.60;34.47;;;16.10;91.30;;;;;;5052495;28;20045;-71
2021/06/10 05:47:56;;;;;;;38.20;33.30;;;16.20;91.20;;;;;;5051789;28;20167;-71
2021/06/10 05:50:22;;;;;;;33.73;30.10;;;16.30;91.10;;;;;;5052077;28;20044;-71
2021/06/10 05:52:47;;;;;;;38.00;31.67;;;16.40;90.90;;;;;;5052160;28;20071;-71
2021/06/10 05:55:13;;;;;;;32.10;27.97;;;16.50;90.70;;;;;;5051379;28;20040;-71
2021/06/10 05:57:39;;;;;;;32.73;25.97;;;16.60;90.40;;;;;;5052565;28;20139;-71
2021/06/10 06:00:07;;;;;;;30.47;27.27;;;16.70;90.20;;;;;;5052183;28;20383;-71
2021/06/10 06:02:33;;;;;;;29.60;25.47;;;16.90;89.80;;;;;;5051382;28;20049;-71
2021/06/10 06:05:10;;;;;;;27.17;24.17;;;17.10;88.70;;;;;;5051814;28;20057;-71
2021/06/10 06:07:36;;;;;;;24.40;20.47;;;17.30;88.20;;;;;;5052045;28;20064;-71
2021/06/10 06:10:03;;;;;;;22.60;19.20;;;17.30;87.50;;;;;;5051026;28;20072;-71
2021/06/10 06:12:32;;;;;;;25.23;20.43;;;17.30;86.60;;;;;;5051876;28;20049;-71
2021/06/10 06:15:00;;;;;;;21.13;18.83;;;17.40;86.30;;;;;;5052159;28;20053;-70
2021/06/10 06:17:26;;;;;;;21.53;18.30;;;17.40;85.90;;;;;;5051417;28;20044;-71
2021/06/10 06:19:52;;;;;;;20.13;18.00;;;17.50;85.70;;;;;;5051917;28;20068;-70
2021/06/10 06:22:18;;;;;;;33.13;24.07;;;17.50;85.20;;;;;;5051467;28;20413;-71
2021/06/10 06:24:43;;;;;;;27.53;21.07;;;17.60;85.20;;;;;;5051266;28;20049;-70
2021/06/10 06:27:13;;;;;;;23.57;21.03;;;17.60;85.00;;;;;;5051462;28;20416;-70
2021/06/10 06:29:40;;;;;;;26.37;22.13;;;17.60;84.60;;;;;;5051467;28;20148;-70
2021/06/10 06:32:06;;;;;;;28.50;23.10;;;17.70;84.70;;;;;;5050186;28;20049;-71
2021/06/10 06:34:38;;;;;;;24.33;21.67;;;17.70;84.70;;;;;;5051081;28;20448;-70
2021/06/10 06:37:05;;;;;;;32.90;23.80;;;17.80;84.60;;;;;;5048858;28;20040;-70
2021/06/10 06:39:42;;;;;;;25.00;21.70;;;17.80;84.50;;;;;;5051403;28;20072;-70
2021/06/10 06:42:09;;;;;;;25.60;22.13;;;17.90;84.30;;;;;;5051039;28;20099;-70
2021/06/10 06:44:35;;;;;;;24.33;20.63;;;17.90;84.30;;;;;;5049808;28;20106;-70
2021/06/10 06:47:01;;;;;;;22.63;20.23;;;18.00;84.10;;;;;;5050115;28;20041;-69
2021/06/10 06:49:33;;;;;;;;;;;18.10;83.90;;;;;;5050901;28;20045;-70
2021/06/10 06:51:59;;;;;;;19.43;17.30;;;18.20;83.10;;;;;;5049533;28;20345;-70
2021/06/10 06:54:28;;;;;;;18.60;16.77;;;18.30;82.90;;;;;;5050783;28;20045;-69
2021/06/10 06:56:54;;;;;;;20.43;18.27;;;18.40;82.00;;;;;;5050739;28;20044;-69
2021/06/10 06:59:20;;;;;;;17.43;15.63;;;18.40;81.50;;;;;;5048829;28;20095;-70
2021/06/10 07:01:46;;;;;;;19.30;17.30;;;18.50;81.10;;;;;;5050755;28;20351;-70
2021/06/10 07:04:12;;;;;;;16.70;15.03;;;18.60;80.80;;;;;;5050117;28;20049;-71
2021/06/10 07:06:38;;;;;;;18.97;14.67;;;18.70;80.00;;;;;;5050158;28;20362;-70
2021/06/10 07:09:04;;;;;;;17.27;15.27;;;18.80;79.90;;;;;;5050225;28;20055;-71
2021/06/10 07:11:35;;;;;;;16.03;14.33;;;18.80;79.20;;;;;;5050496;28;20064;-71
2021/06/10 07:14:02;;;;;;;16.47;14.70;;;18.90;78.40;;;;;;5048904;28;20040;-71
2021/06/10 07:16:28;;;;;;;15.90;14.30;;;18.90;78.00;;;;;;5050720;28;20063;-70
2021/06/10 07:18:54;;;;;;;16.63;14.30;;;19.00;77.60;;;;;;5050135;28;20423;-70
2021/06/10 07:21:26;;;;;;;15.70;13.60;;;19.00;77.30;;;;;;5049759;28;20040;-71
2021/06/10 07:23:52;;;;;;;14.83;13.30;;;19.10;77.40;;;;;;5049989;28;20381;-70
2021/06/10 07:26:18;;;;;;;15.93;12.77;;;19.20;76.70;;;;;;5048923;28;20649;-70
2021/06/10 07:28:44;;;;;;;16.57;12.80;;;19.20;76.10;;;;;;5049575;28;20068;-70
2021/06/10 07:31:10;;;;;;;14.13;12.63;;;19.30;75.80;;;;;;5050000;28;20374;-70
2021/06/10 07:33:36;;;;;;;15.70;13.20;;;19.30;75.10;;;;;;5048916;28;20098;-71
2021/06/10 07:36:03;;;;;;;15.70;14.00;;;19.40;74.70;;;;;;5047276;28;20041;-72
2021/06/10 07:38:32;;;;;;;15.37;13.77;;;19.40;74.20;;;;;;5049212;28;20056;-71
2021/06/10 07:40:58;;;;;;;16.90;12.67;;;19.40;73.80;;;;;;5048898;28;20053;-71
2021/06/10 07:43:23;;;;;;;13.87;12.33;;;19.50;73.80;;;;;;5049392;28;20049;-70
2021/06/10 07:45:50;;;;;;;13.47;12.07;;;19.60;73.30;;;;;;5050016;28;20075;-70
2021/06/10 07:48:15;;;;;;;14.50;12.93;;;19.60;72.70;;;;;;5048903;28;20053;-70
2021/06/10 07:50:41;;;;;;;16.23;12.33;;;19.70;72.40;;;;;;5052797;28;20040;-71
2021/06/10 07:53:07;;;;;;;14.63;13.00;;;19.70;72.10;;;;;;5053742;28;20045;-70
2021/06/10 07:55:32;;;;;;;12.57;11.27;;;19.80;72.00;;;;;;5052733;28;20079;-70
2021/06/10 07:58:01;;;;;;;13.07;11.40;;;19.80;71.00;;;;;;5053822;28;20416;-70
2021/06/10 08:00:33;;;;;;;14.70;11.93;;;19.90;70.60;;;;;;5053753;28;20095;-70
2021/06/10 08:02:59;;;;;;;16.57;14.67;;;20.00;70.70;;;;;;5052658;28;20464;-70
2021/06/10 08:05:25;;;;;;;14.93;12.77;;;20.10;70.40;;;;;;5053149;28;20128;-71
2021/06/10 08:07:53;;;;;;;14.07;12.30;;;20.20;70.00;;;;;;5053742;28;20052;-70
2021/06/10 08:10:19;;;;;;;12.00;10.77;;;20.20;69.90;;;;;;5052432;28;20048;-70
2021/06/10 08:12:45;;;;;;;13.63;12.23;;;20.40;70.20;;;;;;5053741;28;20163;-72
2021/06/10 08:15:11;;;;;;;14.97;12.00;;;20.50;69.00;;;;;;5053229;28;20448;-70
2021/06/10 08:17:37;;;;;;;13.83;12.47;;;20.60;68.40;;;;;;5050334;28;20128;-70
2021/06/10 08:20:05;;;;;;;15.77;14.17;;;20.60;68.20;;;;;;5052878;28;20546;-71
2021/06/10 08:22:31;;;;;;;14.73;13.23;;;20.70;67.80;;;;;;5052533;28;20052;-71
2021/06/10 08:24:57;;;;;;;13.70;11.13;;;20.70;67.50;;;;;;5050318;28;20482;-70
2021/06/10 08:27:22;;;;;;;12.57;11.27;;;20.70;66.90;;;;;;5053509;28;20131;-72
2021/06/10 08:29:48;;;;;;;14.13;11.70;;;20.70;66.20;;;;;;5052068;28;20418;-71
2021/06/10 08:32:14;;;;;;;11.60;10.40;;;20.80;66.00;;;;;;5053153;28;20057;-74
2021/06/10 08:34:39;;;;;;;12.37;10.30;;;20.90;66.20;;;;;;5053194;28;20045;-71
2021/06/10 08:37:08;;;;;;;11.37;10.13;;;21.10;65.50;;;;;;5052580;28;20041;-71
2021/06/10 08:39:34;;;;;;;13.73;11.83;;;21.10;64.40;;;;;;5053777;28;20076;-70
2021/06/10 08:42:00;;;;;;;12.07;10.83;;;21.20;64.00;;;;;;5053635;28;20505;-70
2021/06/10 08:44:27;;;;;;;12.43;10.67;;;21.30;64.30;;;;;;5052839;28;20136;-70
2021/06/10 08:46:54;;;;;;;11.60;10.40;;;21.40;63.80;;;;;;5053719;28;20445;-71
2021/06/10 08:49:23;;;;;;;12.80;10.40;;;21.50;63.70;;;;;;5053506;28;20057;-70
2021/06/10 08:51:49;;;;;;;10.40;9.40;;;21.70;62.90;;;;;;5052570;28;20136;-70
2021/06/10 08:54:15;;;;;;;11.77;10.53;;;21.70;62.80;;;;;;5053068;28;20049;-71
2021/06/10 08:56:43;;;;;;;11.20;9.77;;;21.80;61.80;;;;;;5053460;28;20070;-70
2021/06/10 08:59:09;;;;;;;10.67;8.80;;;21.80;61.70;;;;;;5052091;28;20052;-71
2021/06/10 09:01:38;;;;;;;9.30;8.37;;;21.90;60.70;;;;;;5053282;28;20041;-70
2021/06/10 09:04:04;;;;;;;11.93;8.60;;;21.90;60.00;;;;;;5052855;28;20139;-70
2021/06/10 09:06:49;;;;;;;9.40;8.37;;;22.00;60.10;;;;;;5052626;28;20064;-70
2021/06/10 09:09:20;;;;;;;10.30;9.32;;;22.10;59.10;;;;;;5051913;28;20079;-70
2021/06/10 09:11:46;;;;;;;9.63;8.63;;;22.10;58.90;;;;;;5032194;28;20338;-70
2021/06/10 09:14:11;;;;;;;14.13;10.60;;;22.10;59.50;;;;;;5052331;28;20071;-70
2021/06/10 09:16:39;;;;;;;12.73;10.77;;;22.20;59.80;;;;;;5052338;28;20056;-72
2021/06/10 09:19:19;;;;;;;12.18;9.65;;;22.30;59.80;;;;;;5051412;28;20053;-71
2021/06/10 09:21:48;;;;;;;13.30;10.35;;;22.40;60.00;;;;;;5052855;28;20041;-71
2021/06/10 09:24:35;;;;;;;10.73;9.63;;;22.60;59.40;;;;;;5052510;28;20049;-72
2021/06/10 09:27:08;;;;;;;11.00;9.80;;;22.90;57.30;;;;;;5052103;28;20041;-71
2021/06/10 09:29:50;;;;;;;11.38;8.88;;;23.10;57.90;;;;;;5052160;28;20072;-71
2021/06/10 09:32:29;;;;;;;10.07;8.95;;;23.40;56.40;;;;;;5052715;28;20048;-71
2021/06/10 09:35:08;;;;;;;10.38;8.75;;;23.50;56.50;;;;;;5051654;28;20595;-71
2021/06/10 09:37:38;;;;;;;10.98;8.45;;;23.70;55.60;;;;;;5052805;28;20053;-70
2021/06/10 09:40:09;;;;;;;10.93;9.75;;;23.80;54.70;;;;;;5051722;28;20064;-71
2021/06/10 09:42:38;;;;;;;11.65;8.73;;;24.00;54.00;;;;;;5052557;28;20084;-72
2021/06/10 09:45:10;;;;;;;11.95;10.68;;;24.00;53.80;;;;;;5052277;28;20048;-70
2021/06/10 09:47:40;;;;;;;10.80;9.43;;;24.20;53.60;;;;;;5050615;28;20075;-71
2021/06/10 09:50:22;;;;;;;12.23;10.50;;;24.30;53.60;;;;;;5050872;28;20057;-70
2021/06/10 09:52:53;;;;;;;11.60;10.15;;;24.40;53.00;;;;;;5051390;28;20077;-70
2021/06/10 09:55:41;;;;;;;13.15;11.23;;;24.40;52.90;;;;;;5050449;28;20053;-71
2021/06/10 09:58:13;;;;;;;13.20;9.75;;;24.50;53.10;;;;;;5050946;28;20051;-70
2021/06/10 10:00:50;;;;;;;12.00;10.90;;;24.50;53.40;;;;;;5050994;28;20065;-71
2021/06/10 10:03:25;;;;;;;11.55;10.45;;;24.50;52.70;;;;;;5051799;28;20501;-71
2021/06/10 10:05:52;;;;;;;10.50;9.40;;;24.50;52.50;;;;;;5052322;28;20089;-71
2021/06/10 10:08:19;;;;;;;11.35;10.13;;;24.50;52.90;;;;;;5051501;28;20044;-72
2021/06/10 10:10:45;;;;;;;10.98;9.85;;;24.60;52.80;;;;;;5052448;28;20048;-70
2021/06/10 10:13:14;;;;;;;10.98;9.85;;;24.50;52.90;;;;;;5051055;28;20044;-70
2021/06/10 10:15:40;;;;;;;13.18;11.82;;;24.50;53.20;;;;;;5051446;28;20045;-70
2021/06/10 10:18:07;;;;;;;14.52;11.98;;;24.40;53.30;;;;;;5051930;28;20099;-70
2021/06/10 10:20:33;;;;;;;12.05;10.85;;;24.30;53.70;;;;;;5052178;28;20135;-71
2021/06/10 10:22:59;;;;;;;10.93;9.80;;;24.30;53.60;;;;;;5050864;28;20107;-71
2021/06/10 10:25:25;;;;;;;12.68;10.60;;;24.30;54.00;;;;;;5051936;28;20432;-70
2021/06/10 10:27:51;;;;;;;12.88;11.52;;;24.30;53.60;;;;;;5051725;28;20405;-70
2021/06/10 10:30:21;;;;;;;12.50;11.25;;;24.30;53.60;;;;;;5050363;28;20064;-70
2021/06/10 10:32:47;;;;;;;11.57;9.95;;;24.40;53.60;;;;;;5051805;28;20045;-72
2021/06/10 10:35:21;;;;;;;12.27;9.30;;;24.40;53.10;;;;;;5051480;28;20052;-70
2021/06/10 10:37:48;;;;;;;11.90;10.70;;;24.50;53.00;;;;;;5051042;28;20487;-71
2021/06/10 10:40:27;;;;;;;12.57;11.30;;;24.60;52.90;;;;;;5033372;28;20060;-71
2021/06/10 10:42:54;;;;;;;13.38;10.75;;;24.70;52.50;;;;;;5051818;28;20045;-71
2021/06/10 10:45:27;;;;;;;12.00;10.80;;;24.60;52.40;;;;;;5050528;28;20056;-70
2021/06/10 10:48:05;;;;;;;11.63;10.40;;;24.60;52.80;;;;;;5051296;28;20107;-70
2021/06/10 10:50:48;;;;;;;10.27;9.23;;;24.60;53.10;;;;;;5048836;28;20049;-71
2021/06/10 10:53:21;;;;;;;11.85;8.90;;;24.70;52.60;;;;;;5051548;28;20045;-71
2021/06/10 10:56:07;;;;;;;9.43;8.43;;;24.80;52.30;;;;;;5051834;28;20049;-71
2021/06/10 10:58:33;;;;;;;9.57;8.45;;;25.00;52.20;;;;;;5050844;28;20159;-71
2021/06/10 11:01:00;;;;;;;9.68;8.68;;;25.10;51.90;;;;;;5050859;28;20041;-70
2021/06/10 11:03:33;;;;;;;8.32;7.53;;;25.20;51.10;;;;;;5051041;28;20516;-71
2021/06/10 11:06:22;;;;;;;9.57;8.00;;;25.30;50.10;;;;;;5050618;28;20128;-71
2021/06/10 11:09:06;;;;;;;9.10;6.95;;;25.40;50.40;;;;;;5051325;28;20049;-70
2021/06/10 11:12:04;;;;;;;7.72;6.93;;;25.50;50.40;;;;;;5050039;28;20053;-71
2021/06/10 11:14:42;;;;;;;8.35;6.05;;;25.50;48.60;;;;;;5051291;28;20049;-71
2021/06/10 11:17:32;;;;;;;7.57;6.43;;;25.50;48.50;;;;;;5051078;28;20139;-71
2021/06/10 11:20:07;;;;;;;7.80;4.68;;;25.60;48.00;;;;;;5050191;28;20049;-71
2021/06/10 11:22:37;;;;;;;4.35;3.95;;;25.70;48.30;;;;;;5051288;28;20053;-72
2021/06/10 11:25:10;;;;;;;6.93;4.70;;;25.80;47.30;;;;;;5055086;28;20132;-70
2021/06/10 11:27:44;;;;;;;5.75;4.30;;;25.90;46.90;;;;;;5055215;28;20067;-70
2021/06/10 11:30:28;;;;;;;7.40;5.35;;;26.00;46.80;;;;;;5054439;28;20077;-69
2021/06/10 11:33:09;;;;;;;6.78;4.82;;;26.30;46.90;;;;;;5054430;28;20060;-69
2021/06/10 11:35:44;;;;;;;;;;;26.40;46.90;;;;;;5055425;28;20079;-70
2021/06/10 11:38:24;;;;;;;10.00;5.70;;;26.50;46.40;;;;;;5054782;28;19943;-70
2021/06/10 11:41:08;;;;;;;8.30;5.38;;;26.50;46.20;;;;;;5054201;28;20053;-70
2021/06/10 11:43:37;;;;;;;6.38;4.15;;;26.70;44.80;;;;;;5054607;28;20059;-70
2021/06/10 11:46:02;;;;;;;8.40;3.80;;;26.70;45.70;;;;;;5054790;28;20110;-70
2021/06/10 11:48:39;;;;;;;4.60;3.55;;;26.80;45.70;;;;;;5053938;28;20053;-70
2021/06/10 11:51:07;;;;;;;6.00;4.22;;;26.90;44.60;;;;;;5054575;28;20045;-70
2021/06/10 11:53:33;;;;;;;7.15;4.70;;;27.00;44.80;;;;;;5054048;28;20049;-70
2021/06/10 11:55:59;;;;;;;6.95;4.15;;;27.00;43.90;;;;;;5054388;28;20102;-70
2021/06/10 11:58:29;;;;;;;5.70;3.85;;;27.00;44.40;;;;;;5054821;28;20053;-71
2021/06/10 12:00:55;;;;;;;7.25;4.20;;;26.90;44.80;;;;;;5053847;28;20045;-71
2021/06/10 12:03:33;;;;;;;4.93;4.00;;;26.80;43.80;;;;;;5054500;28;20067;-71
2021/06/10 12:05:59;;;;;;;8.07;4.53;;;26.80;44.20;;;;;;5054649;28;20429;-71
2021/06/10 12:08:26;;;;;;;4.35;3.95;;;26.70;44.00;;;;;;5054206;28;20068;-70
2021/06/10 12:10:53;;;;;;;5.55;4.63;;;26.70;44.30;;;;;;5054820;28;20087;-72
2021/06/10 12:13:24;;;;;;;7.40;3.92;;;26.70;44.00;;;;;;5054102;28;20185;-71
2021/06/10 12:15:51;;;;;;;6.10;3.72;;;26.80;44.20;;;;;;5053189;28;20041;-71
2021/06/10 12:18:18;;;;;;;7.80;5.15;;;26.90;44.40;;;;;;5054213;28;20402;-70
2021/06/10 12:20:46;;;;;;;7.50;5.68;;;27.00;44.10;;;;;;5054224;28;20074;-71
2021/06/10 12:23:21;;;;;;;6.63;4.50;;;27.00;43.60;;;;;;5053187;28;20254;-70
2021/06/10 12:26:10;;;;;;;5.20;3.72;;;27.10;43.20;;;;;;5054407;28;20063;-70
2021/06/10 12:28:41;;;;;;;7.65;4.47;;;27.20;43.70;;;;;;5053039;28;20488;-71
2021/06/10 12:31:21;;;;;;;6.15;4.63;;;27.30;42.90;;;;;;5053789;28;20124;-71
2021/06/10 12:33:48;;;;;;;7.55;4.70;;;27.30;42.80;;;;;;5054053;28;20451;-71
2021/06/10 12:36:32;;;;;;;6.13;3.75;;;27.10;43.10;;;;;;5052476;28;20045;-70
2021/06/10 12:39:02;;;;;;;6.78;4.57;;;26.80;43.70;;;;;;5053778;28;20044;-70
2021/06/10 12:41:37;;;;;;;6.13;4.20;;;26.60;44.00;;;;;;5054135;28;20052;-70